sensor_id;sensor_type;location;lat;lon;timestamp;temperature;humidity
3332;DHT22;1678;50.94845400;5.30809100;2022-10-03T00:01:24;8.10;99.90
3332;DHT22;1678;50.94845400;5.30809100;2022-10-03T00:04:08;8.10;99.90
3332;DHT22;1678;50.94845400;5.30809100;2022-10-03T00:06:52;8.10;99.90
3332;DHT22;1678;50.94845400;5.30809100;2022-10-03T00:09:42;8.10;99.90
3332;DHT22;1678;50.94845400;5.30809100;2022-10-03T00:12:36;8.10;99.90
3332;DHT22;1678;50.94845400;5.30809100;2022-10-03T00:15:11;8.00;99.90
3332;DHT22;1678;50.94845400;5.30809100;2022-10-03T00:17:47;8.00;99.90
3332;DHT22;1678;50.94845400;5.30809100;2022-10-03T00:20:38;8.10;99.90
3332;DHT22;1678;50.94845400;5.30809100;2022-10-03T00:23:12;8.10;99.90
3332;DHT22;1678;50.94845400;5.30809100;2022-10-03T00:25:51;8.10;99.90
3332;DHT22;1678;50.94845400;5.30809100;2022-10-03T00:28:45;8.00;99.90
3332;DHT22;1678;50.94845400;5.30809100;2022-10-03T00:31:23;8.10;99.90
3332;DHT22;1678;50.94845400;5.30809100;2022-10-03T00:34:02;8.00;99.90
3332;DHT22;1678;50.94845400;5.30809100;2022-10-03T00:36:37;8.00;99.90
3332;DHT22;1678;50.94845400;5.30809100;2022-10-03T00:39:32;7.90;99.90
3332;DHT22;1678;50.94845400;5.30809100;2022-10-03T00:45:36;7.80;99.90
3332;DHT22;1678;50.94845400;5.30809100;2022-10-03T00:48:43;7.80;99.90
3332;DHT22;1678;50.94845400;5.30809100;2022-10-03T00:51:28;7.80;99.90
3332;DHT22;1678;50.94845400;5.30809100;2022-10-03T00:54:15;7.90;99.90
3332;DHT22;1678;50.94845400;5.30809100;2022-10-03T00:57:01;7.80;99.90
3332;DHT22;1678;50.94845400;5.30809100;2022-10-03T00:59:47;7.80;99.90
3332;DHT22;1678;50.94845400;5.30809100;2022-10-03T01:02:33;7.70;99.90
3332;DHT22;1678;50.94845400;5.30809100;2022-10-03T01:05:15;7.80;99.90
3332;DHT22;1678;50.94845400;5.30809100;2022-10-03T01:08:20;7.70;99.90
3332;DHT22;1678;50.94845400;5.30809100;2022-10-03T01:11:02;7.70;99.90
3332;DHT22;1678;50.94845400;5.30809100;2022-10-03T01:13:39;7.70;99.90
3332;DHT22;1678;50.94845400;5.30809100;2022-10-03T01:16:18;7.70;99.90
3332;DHT22;1678;50.94845400;5.30809100;2022-10-03T01:18:59;7.60;99.90
3332;DHT22;1678;50.94845400;5.30809100;2022-10-03T01:21:37;7.60;99.90
3332;DHT22;1678;50.94845400;5.30809100;2022-10-03T01:24:30;7.60;99.90
3332;DHT22;1678;50.94845400;5.30809100;2022-10-03T01:27:03;7.60;99.90
3332;DHT22;1678;50.94845400;5.30809100;2022-10-03T01:29:46;7.50;99.90
3332;DHT22;1678;50.94845400;5.30809100;2022-10-03T01:32:39;7.50;99.90
3332;DHT22;1678;50.94845400;5.30809100;2022-10-03T01:35:16;7.50;99.90
3332;DHT22;1678;50.94845400;5.30809100;2022-10-03T01:37:55;7.60;99.90
3332;DHT22;1678;50.94845400;5.30809100;2022-10-03T01:40:27;7.50;99.90
3332;DHT22;1678;50.94845400;5.30809100;2022-10-03T01:43:04;7.50;99.90
3332;DHT22;1678;50.94845400;5.30809100;2022-10-03T01:45:46;7.50;99.90
3332;DHT22;1678;50.94845400;5.30809100;2022-10-03T01:48:21;7.50;99.90
3332;DHT22;1678;50.94845400;5.30809100;2022-10-03T01:50:59;7.50;99.90
3332;DHT22;1678;50.94845400;5.30809100;2022-10-03T01:53:37;7.50;99.90
3332;DHT22;1678;50.94845400;5.30809100;2022-10-03T01:56:14;7.50;99.90
3332;DHT22;1678;50.94845400;5.30809100;2022-10-03T01:58:52;7.40;99.90
3332;DHT22;1678;50.94845400;5.30809100;2022-10-03T02:01:30;7.40;99.90
3332;DHT22;1678;50.94845400;5.30809100;2022-10-03T02:04:08;7.40;99.90
3332;DHT22;1678;50.94845400;5.30809100;2022-10-03T02:06:47;7.40;99.90
3332;DHT22;1678;50.94845400;5.30809100;2022-10-03T02:09:24;7.40;99.90
3332;DHT22;1678;50.94845400;5.30809100;2022-10-03T02:12:03;7.30;99.90
3332;DHT22;1678;50.94845400;5.30809100;2022-10-03T02:14:45;7.30;99.90
3332;DHT22;1678;50.94845400;5.30809100;2022-10-03T02:17:25;7.20;99.90
3332;DHT22;1678;50.94845400;5.30809100;2022-10-03T02:20:04;7.20;99.90
3332;DHT22;1678;50.94845400;5.30809100;2022-10-03T02:22:41;7.30;99.90
3332;DHT22;1678;50.94845400;5.30809100;2022-10-03T02:25:39;7.40;99.90
3332;DHT22;1678;50.94845400;5.30809100;2022-10-03T02:31:44;7.50;99.90
3332;DHT22;1678;50.94845400;5.30809100;2022-10-03T02:34:32;7.60;99.90
3332;DHT22;1678;50.94845400;5.30809100;2022-10-03T02:37:33;7.70;99.90
3332;DHT22;1678;50.94845400;5.30809100;2022-10-03T02:46:33;7.80;99.90
3332;DHT22;1678;50.94845400;5.30809100;2022-10-03T02:52:52;7.80;99.90
3332;DHT22;1678;50.94845400;5.30809100;2022-10-03T02:55:51;7.70;99.90
3332;DHT22;1678;50.94845400;5.30809100;2022-10-03T02:58:54;7.70;99.90
3332;DHT22;1678;50.94845400;5.30809100;2022-10-03T03:02:02;7.70;99.90
3332;DHT22;1678;50.94845400;5.30809100;2022-10-03T03:05:17;7.60;99.90
3332;DHT22;1678;50.94845400;5.30809100;2022-10-03T03:11:36;7.50;99.90
3332;DHT22;1678;50.94845400;5.30809100;2022-10-03T03:14:25;7.40;99.90
3332;DHT22;1678;50.94845400;5.30809100;2022-10-03T03:17:17;7.40;99.90
3332;DHT22;1678;50.94845400;5.30809100;2022-10-03T03:20:05;7.40;99.90
3332;DHT22;1678;50.94845400;5.30809100;2022-10-03T03:22:50;7.40;99.90
3332;DHT22;1678;50.94845400;5.30809100;2022-10-03T03:25:34;7.30;99.90
3332;DHT22;1678;50.94845400;5.30809100;2022-10-03T03:28:16;7.20;99.90
3332;DHT22;1678;50.94845400;5.30809100;2022-10-03T03:30:53;7.30;99.90
3332;DHT22;1678;50.94845400;5.30809100;2022-10-03T03:33:30;7.20;99.90
3332;DHT22;1678;50.94845400;5.30809100;2022-10-03T03:36:04;7.10;99.90
3332;DHT22;1678;50.94845400;5.30809100;2022-10-03T03:38:45;7.10;99.90
3332;DHT22;1678;50.94845400;5.30809100;2022-10-03T03:41:39;7.10;99.90
3332;DHT22;1678;50.94845400;5.30809100;2022-10-03T03:44:21;7.00;99.90
3332;DHT22;1678;50.94845400;5.30809100;2022-10-03T03:47:03;7.10;99.90
3332;DHT22;1678;50.94845400;5.30809100;2022-10-03T03:49:48;7.00;99.90
3332;DHT22;1678;50.94845400;5.30809100;2022-10-03T03:52:32;7.00;99.90
3332;DHT22;1678;50.94845400;5.30809100;2022-10-03T03:55:22;7.00;99.90
3332;DHT22;1678;50.94845400;5.30809100;2022-10-03T03:58:06;7.00;99.90
3332;DHT22;1678;50.94845400;5.30809100;2022-10-03T04:00:51;6.90;99.90
3332;DHT22;1678;50.94845400;5.30809100;2022-10-03T04:03:39;6.90;99.90
3332;DHT22;1678;50.94845400;5.30809100;2022-10-03T04:06:24;6.90;99.90
3332;DHT22;1678;50.94845400;5.30809100;2022-10-03T04:09:24;6.80;99.90
3332;DHT22;1678;50.94845400;5.30809100;2022-10-03T04:12:03;6.80;99.90
3332;DHT22;1678;50.94845400;5.30809100;2022-10-03T04:14:57;6.80;99.90
3332;DHT22;1678;50.94845400;5.30809100;2022-10-03T04:17:40;6.70;99.90
3332;DHT22;1678;50.94845400;5.30809100;2022-10-03T04:20:50;6.70;99.90
3332;DHT22;1678;50.94845400;5.30809100;2022-10-03T04:23:38;6.80;99.90
3332;DHT22;1678;50.94845400;5.30809100;2022-10-03T04:26:20;6.70;99.90
3332;DHT22;1678;50.94845400;5.30809100;2022-10-03T04:29:27;6.70;99.90
3332;DHT22;1678;50.94845400;5.30809100;2022-10-03T04:32:03;6.70;99.90
3332;DHT22;1678;50.94845400;5.30809100;2022-10-03T04:34:49;6.60;99.90
3332;DHT22;1678;50.94845400;5.30809100;2022-10-03T04:37:25;6.60;99.90
3332;DHT22;1678;50.94845400;5.30809100;2022-10-03T04:40:08;6.60;99.90
3332;DHT22;1678;50.94845400;5.30809100;2022-10-03T04:42:48;6.60;99.90
3332;DHT22;1678;50.94845400;5.30809100;2022-10-03T04:45:30;6.60;99.90
3332;DHT22;1678;50.94845400;5.30809100;2022-10-03T04:48:09;6.60;99.90
3332;DHT22;1678;50.94845400;5.30809100;2022-10-03T04:50:45;6.60;99.90
3332;DHT22;1678;50.94845400;5.30809100;2022-10-03T04:53:21;6.50;99.90
3332;DHT22;1678;50.94845400;5.30809100;2022-10-03T04:55:55;6.60;99.90
3332;DHT22;1678;50.94845400;5.30809100;2022-10-03T04:58:31;6.50;99.90
3332;DHT22;1678;50.94845400;5.30809100;2022-10-03T05:01:10;6.50;99.90
3332;DHT22;1678;50.94845400;5.30809100;2022-10-03T05:03:51;6.60;99.90
3332;DHT22;1678;50.94845400;5.30809100;2022-10-03T05:06:32;6.50;99.90
3332;DHT22;1678;50.94845400;5.30809100;2022-10-03T05:09:19;6.50;99.90
3332;DHT22;1678;50.94845400;5.30809100;2022-10-03T05:11:58;6.40;99.90
3332;DHT22;1678;50.94845400;5.30809100;2022-10-03T05:14:43;6.40;99.90
3332;DHT22;1678;50.94845400;5.30809100;2022-10-03T05:17:18;6.40;99.90
3332;DHT22;1678;50.94845400;5.30809100;2022-10-03T05:20:01;6.40;99.90
3332;DHT22;1678;50.94845400;5.30809100;2022-10-03T05:22:43;6.30;99.90
3332;DHT22;1678;50.94845400;5.30809100;2022-10-03T05:25:24;6.30;99.90
3332;DHT22;1678;50.94845400;5.30809100;2022-10-03T05:28:04;6.40;99.90
3332;DHT22;1678;50.94845400;5.30809100;2022-10-03T05:30:42;6.40;99.90
3332;DHT22;1678;50.94845400;5.30809100;2022-10-03T05:33:20;6.40;99.90
3332;DHT22;1678;50.94845400;5.30809100;2022-10-03T05:36:15;6.40;99.90
3332;DHT22;1678;50.94845400;5.30809100;2022-10-03T05:41:50;6.40;99.90
3332;DHT22;1678;50.94845400;5.30809100;2022-10-03T05:44:42;6.50;99.90
3332;DHT22;1678;50.94845400;5.30809100;2022-10-03T05:47:12;6.50;99.90
3332;DHT22;1678;50.94845400;5.30809100;2022-10-03T05:50:19;6.50;99.90
3332;DHT22;1678;50.94845400;5.30809100;2022-10-03T05:53:02;6.50;99.90
3332;DHT22;1678;50.94845400;5.30809100;2022-10-03T05:55:44;6.60;99.90
3332;DHT22;1678;50.94845400;5.30809100;2022-10-03T05:58:42;6.70;99.90
3332;DHT22;1678;50.94845400;5.30809100;2022-10-03T06:01:35;6.80;99.90
3332;DHT22;1678;50.94845400;5.30809100;2022-10-03T06:04:47;6.90;99.90
3332;DHT22;1678;50.94845400;5.30809100;2022-10-03T06:07:24;7.00;99.90
3332;DHT22;1678;50.94845400;5.30809100;2022-10-03T06:10:18;7.20;99.90
3332;DHT22;1678;50.94845400;5.30809100;2022-10-03T06:13:04;7.40;99.90
3332;DHT22;1678;50.94845400;5.30809100;2022-10-03T06:15:47;7.30;99.90
3332;DHT22;1678;50.94845400;5.30809100;2022-10-03T06:18:50;7.40;99.90
3332;DHT22;1678;50.94845400;5.30809100;2022-10-03T06:24:51;7.30;99.90
3332;DHT22;1678;50.94845400;5.30809100;2022-10-03T06:27:50;7.30;99.90
3332;DHT22;1678;50.94845400;5.30809100;2022-10-03T06:30:44;7.30;99.90
3332;DHT22;1678;50.94845400;5.30809100;2022-10-03T06:33:51;7.40;99.90
3332;DHT22;1678;50.94845400;5.30809100;2022-10-03T06:36:30;7.40;99.90
3332;DHT22;1678;50.94845400;5.30809100;2022-10-03T06:39:33;7.50;99.90
3332;DHT22;1678;50.94845400;5.30809100;2022-10-03T06:42:30;7.50;99.90
3332;DHT22;1678;50.94845400;5.30809100;2022-10-03T06:48:33;7.80;99.90
3332;DHT22;1678;50.94845400;5.30809100;2022-10-03T06:54:22;8.20;99.90
3332;DHT22;1678;50.94845400;5.30809100;2022-10-03T06:57:18;8.30;99.90
3332;DHT22;1678;50.94845400;5.30809100;2022-10-03T07:00:10;8.50;99.90
3332;DHT22;1678;50.94845400;5.30809100;2022-10-03T07:03:02;8.50;99.90
3332;DHT22;1678;50.94845400;5.30809100;2022-10-03T07:09:16;8.60;99.90
3332;DHT22;1678;50.94845400;5.30809100;2022-10-03T07:15:07;8.90;99.90
3332;DHT22;1678;50.94845400;5.30809100;2022-10-03T07:17:49;9.10;99.90
3332;DHT22;1678;50.94845400;5.30809100;2022-10-03T07:20:52;9.20;99.90
3332;DHT22;1678;50.94845400;5.30809100;2022-10-03T07:23:43;9.30;99.90
3332;DHT22;1678;50.94845400;5.30809100;2022-10-03T07:26:39;9.40;99.90
3332;DHT22;1678;50.94845400;5.30809100;2022-10-03T07:29:22;9.60;99.90
3332;DHT22;1678;50.94845400;5.30809100;2022-10-03T07:32:19;9.70;99.90
3332;DHT22;1678;50.94845400;5.30809100;2022-10-03T07:35:26;9.80;99.90
3332;DHT22;1678;50.94845400;5.30809100;2022-10-03T07:38:55;9.90;99.90
3332;DHT22;1678;50.94845400;5.30809100;2022-10-03T07:45:00;10.20;99.90
3332;DHT22;1678;50.94845400;5.30809100;2022-10-03T07:48:08;10.30;99.90
3332;DHT22;1678;50.94845400;5.30809100;2022-10-03T07:50:48;10.40;99.90
3332;DHT22;1678;50.94845400;5.30809100;2022-10-03T07:56:31;10.60;99.90
3332;DHT22;1678;50.94845400;5.30809100;2022-10-03T08:02:24;10.70;99.90
3332;DHT22;1678;50.94845400;5.30809100;2022-10-03T08:05:15;10.80;99.90
3332;DHT22;1678;50.94845400;5.30809100;2022-10-03T08:08:01;10.90;99.90
3332;DHT22;1678;50.94845400;5.30809100;2022-10-03T08:11:01;11.10;99.90
3332;DHT22;1678;50.94845400;5.30809100;2022-10-03T08:13:51;11.20;99.90
3332;DHT22;1678;50.94845400;5.30809100;2022-10-03T08:16:45;11.30;99.90
3332;DHT22;1678;50.94845400;5.30809100;2022-10-03T08:22:24;11.40;99.90
3332;DHT22;1678;50.94845400;5.30809100;2022-10-03T08:25:14;11.60;99.90
3332;DHT22;1678;50.94845400;5.30809100;2022-10-03T08:28:13;11.70;99.90
3332;DHT22;1678;50.94845400;5.30809100;2022-10-03T08:33:59;12.20;99.90
3332;DHT22;1678;50.94845400;5.30809100;2022-10-03T08:36:48;12.50;99.90
3332;DHT22;1678;50.94845400;5.30809100;2022-10-03T08:42:48;12.30;99.90
3332;DHT22;1678;50.94845400;5.30809100;2022-10-03T08:51:53;12.10;99.90
3332;DHT22;1678;50.94845400;5.30809100;2022-10-03T08:54:55;12.10;99.90
3332;DHT22;1678;50.94845400;5.30809100;2022-10-03T08:57:51;12.30;99.90
3332;DHT22;1678;50.94845400;5.30809100;2022-10-03T09:00:28;12.40;99.90
3332;DHT22;1678;50.94845400;5.30809100;2022-10-03T09:03:34;12.50;99.90
3332;DHT22;1678;50.94845400;5.30809100;2022-10-03T09:12:58;12.90;99.90
3332;DHT22;1678;50.94845400;5.30809100;2022-10-03T09:18:47;13.00;99.90
3332;DHT22;1678;50.94845400;5.30809100;2022-10-03T09:21:44;13.10;99.90
3332;DHT22;1678;50.94845400;5.30809100;2022-10-03T09:24:41;13.30;99.90
3332;DHT22;1678;50.94845400;5.30809100;2022-10-03T09:27:23;13.40;99.90
3332;DHT22;1678;50.94845400;5.30809100;2022-10-03T09:30:07;13.50;99.90
3332;DHT22;1678;50.94845400;5.30809100;2022-10-03T09:42:48;14.00;99.90
3332;DHT22;1678;50.94845400;5.30809100;2022-10-03T09:51:36;14.40;99.90
3332;DHT22;1678;50.94845400;5.30809100;2022-10-03T10:00:24;14.80;99.90
3332;DHT22;1678;50.94845400;5.30809100;2022-10-03T10:03:27;15.00;99.90
3332;DHT22;1678;50.94845400;5.30809100;2022-10-03T10:06:17;15.00;99.90
3332;DHT22;1678;50.94845400;5.30809100;2022-10-03T10:12:09;15.30;99.90
3332;DHT22;1678;50.94845400;5.30809100;2022-10-03T10:14:53;15.50;99.90
3332;DHT22;1678;50.94845400;5.30809100;2022-10-03T10:23:59;16.00;99.90
3332;DHT22;1678;50.94845400;5.30809100;2022-10-03T10:27:08;16.10;99.90
3332;DHT22;1678;50.94845400;5.30809100;2022-10-03T10:30:09;16.40;99.90
3332;DHT22;1678;50.94845400;5.30809100;2022-10-03T10:36:22;16.80;99.90
3332;DHT22;1678;50.94845400;5.30809100;2022-10-03T10:42:32;16.60;96.70
3332;DHT22;1678;50.94845400;5.30809100;2022-10-03T10:45:37;16.80;99.70
3332;DHT22;1678;50.94845400;5.30809100;2022-10-03T10:48:56;16.80;94.00
3332;DHT22;1678;50.94845400;5.30809100;2022-10-03T10:52:05;17.00;91.60
3332;DHT22;1678;50.94845400;5.30809100;2022-10-03T10:55:09;17.20;90.10
3332;DHT22;1678;50.94845400;5.30809100;2022-10-03T11:01:01;17.30;88.20
3332;DHT22;1678;50.94845400;5.30809100;2022-10-03T11:07:21;17.20;90.00
3332;DHT22;1678;50.94845400;5.30809100;2022-10-03T11:10:20;17.10;90.90
3332;DHT22;1678;50.94845400;5.30809100;2022-10-03T11:26:37;16.70;87.20
3332;DHT22;1678;50.94845400;5.30809100;2022-10-03T11:32:42;16.80;89.60
3332;DHT22;1678;50.94845400;5.30809100;2022-10-03T11:38:21;16.90;88.70
3332;DHT22;1678;50.94845400;5.30809100;2022-10-03T11:40:59;16.90;86.60
3332;DHT22;1678;50.94845400;5.30809100;2022-10-03T11:47:05;16.80;83.70
3332;DHT22;1678;50.94845400;5.30809100;2022-10-03T11:52:30;16.90;88.30
3332;DHT22;1678;50.94845400;5.30809100;2022-10-03T11:55:14;17.00;87.30
3332;DHT22;1678;50.94845400;5.30809100;2022-10-03T11:57:52;17.10;87.90
3332;DHT22;1678;50.94845400;5.30809100;2022-10-03T12:00:24;17.50;87.70
3332;DHT22;1678;50.94845400;5.30809100;2022-10-03T12:03:09;17.60;81.70
3332;DHT22;1678;50.94845400;5.30809100;2022-10-03T12:05:48;17.80;82.00
3332;DHT22;1678;50.94845400;5.30809100;2022-10-03T12:08:24;17.90;78.80
3332;DHT22;1678;50.94845400;5.30809100;2022-10-03T12:11:17;18.30;77.40
3332;DHT22;1678;50.94845400;5.30809100;2022-10-03T12:14:00;18.30;71.10
3332;DHT22;1678;50.94845400;5.30809100;2022-10-03T12:16:49;18.60;77.00
3332;DHT22;1678;50.94845400;5.30809100;2022-10-03T12:19:29;18.60;69.70
3332;DHT22;1678;50.94845400;5.30809100;2022-10-03T12:22:05;18.50;65.40
3332;DHT22;1678;50.94845400;5.30809100;2022-10-03T12:24:40;18.70;67.10
3332;DHT22;1678;50.94845400;5.30809100;2022-10-03T12:27:18;18.70;63.90
3332;DHT22;1678;50.94845400;5.30809100;2022-10-03T12:29:54;18.90;65.50
3332;DHT22;1678;50.94845400;5.30809100;2022-10-03T12:32:40;19.00;61.00
3332;DHT22;1678;50.94845400;5.30809100;2022-10-03T12:35:25;19.30;62.00
3332;DHT22;1678;50.94845400;5.30809100;2022-10-03T12:38:14;19.60;61.80
3332;DHT22;1678;50.94845400;5.30809100;2022-10-03T12:40:53;20.00;60.70
3332;DHT22;1678;50.94845400;5.30809100;2022-10-03T12:43:37;19.90;56.00
3332;DHT22;1678;50.94845400;5.30809100;2022-10-03T12:46:13;20.20;59.50
3332;DHT22;1678;50.94845400;5.30809100;2022-10-03T12:48:46;20.20;58.40
3332;DHT22;1678;50.94845400;5.30809100;2022-10-03T12:51:33;20.40;55.50
3332;DHT22;1678;50.94845400;5.30809100;2022-10-03T12:54:11;20.40;58.20
3332;DHT22;1678;50.94845400;5.30809100;2022-10-03T12:56:46;20.30;54.20
3332;DHT22;1678;50.94845400;5.30809100;2022-10-03T12:59:25;20.40;52.40
3332;DHT22;1678;50.94845400;5.30809100;2022-10-03T13:02:22;20.30;53.10
3332;DHT22;1678;50.94845400;5.30809100;2022-10-03T13:07:51;19.70;55.70
3332;DHT22;1678;50.94845400;5.30809100;2022-10-03T13:10:25;20.20;59.50
3332;DHT22;1678;50.94845400;5.30809100;2022-10-03T13:13:11;20.60;56.70
3332;DHT22;1678;50.94845400;5.30809100;2022-10-03T13:18:46;20.30;54.60
3332;DHT22;1678;50.94845400;5.30809100;2022-10-03T13:21:19;20.20;52.30
3332;DHT22;1678;50.94845400;5.30809100;2022-10-03T13:24:22;19.90;53.10
3332;DHT22;1678;50.94845400;5.30809100;2022-10-03T13:27:01;19.60;52.10
3332;DHT22;1678;50.94845400;5.30809100;2022-10-03T13:29:37;19.30;52.60
3332;DHT22;1678;50.94845400;5.30809100;2022-10-03T13:32:14;19.10;55.00
3332;DHT22;1678;50.94845400;5.30809100;2022-10-03T13:35:19;19.00;56.50
3332;DHT22;1678;50.94845400;5.30809100;2022-10-03T13:41:29;18.90;58.00
3332;DHT22;1678;50.94845400;5.30809100;2022-10-03T13:44:01;19.00;54.90
3332;DHT22;1678;50.94845400;5.30809100;2022-10-03T13:46:37;19.00;56.30
3332;DHT22;1678;50.94845400;5.30809100;2022-10-03T13:49:13;19.20;57.50
3332;DHT22;1678;50.94845400;5.30809100;2022-10-03T13:51:51;19.30;55.40
3332;DHT22;1678;50.94845400;5.30809100;2022-10-03T13:54:43;19.70;56.30
3332;DHT22;1678;50.94845400;5.30809100;2022-10-03T13:57:22;19.90;54.50
3332;DHT22;1678;50.94845400;5.30809100;2022-10-03T14:00:00;20.00;49.90
3332;DHT22;1678;50.94845400;5.30809100;2022-10-03T14:02:43;19.50;50.30
3332;DHT22;1678;50.94845400;5.30809100;2022-10-03T14:08:14;19.40;56.40
3332;DHT22;1678;50.94845400;5.30809100;2022-10-03T14:11:06;19.20;54.60
3332;DHT22;1678;50.94845400;5.30809100;2022-10-03T14:13:47;18.90;54.40
3332;DHT22;1678;50.94845400;5.30809100;2022-10-03T14:16:21;18.90;55.10
3332;DHT22;1678;50.94845400;5.30809100;2022-10-03T14:18:56;19.00;55.60
3332;DHT22;1678;50.94845400;5.30809100;2022-10-03T14:21:47;19.50;55.80
3332;DHT22;1678;50.94845400;5.30809100;2022-10-03T14:24:33;19.90;53.20
3332;DHT22;1678;50.94845400;5.30809100;2022-10-03T14:27:12;20.20;53.30
3332;DHT22;1678;50.94845400;5.30809100;2022-10-03T14:29:54;20.10;52.20
3332;DHT22;1678;50.94845400;5.30809100;2022-10-03T14:32:29;19.90;51.60
3332;DHT22;1678;50.94845400;5.30809100;2022-10-03T14:35:23;19.90;52.80
3332;DHT22;1678;50.94845400;5.30809100;2022-10-03T14:37:58;19.60;51.20
3332;DHT22;1678;50.94845400;5.30809100;2022-10-03T14:40:34;19.70;54.20
3332;DHT22;1678;50.94845400;5.30809100;2022-10-03T14:43:23;19.30;52.70
3332;DHT22;1678;50.94845400;5.30809100;2022-10-03T14:45:57;19.10;53.80
3332;DHT22;1678;50.94845400;5.30809100;2022-10-03T14:48:29;18.90;55.40
3332;DHT22;1678;50.94845400;5.30809100;2022-10-03T14:51:08;19.00;59.20
3332;DHT22;1678;50.94845400;5.30809100;2022-10-03T14:53:45;19.10;58.60
3332;DHT22;1678;50.94845400;5.30809100;2022-10-03T14:56:18;18.90;59.60
3332;DHT22;1678;50.94845400;5.30809100;2022-10-03T14:58:49;18.90;58.90
3332;DHT22;1678;50.94845400;5.30809100;2022-10-03T15:01:22;18.80;59.00
3332;DHT22;1678;50.94845400;5.30809100;2022-10-03T15:03:57;18.70;62.30
3332;DHT22;1678;50.94845400;5.30809100;2022-10-03T15:06:49;18.60;61.80
3332;DHT22;1678;50.94845400;5.30809100;2022-10-03T15:09:27;18.60;63.40
3332;DHT22;1678;50.94845400;5.30809100;2022-10-03T15:12:05;18.70;63.00
3332;DHT22;1678;50.94845400;5.30809100;2022-10-03T15:14:38;18.80;62.70
3332;DHT22;1678;50.94845400;5.30809100;2022-10-03T15:17:17;18.60;58.00
3332;DHT22;1678;50.94845400;5.30809100;2022-10-03T15:19:50;18.60;62.40
3332;DHT22;1678;50.94845400;5.30809100;2022-10-03T15:22:28;18.60;61.10
3332;DHT22;1678;50.94845400;5.30809100;2022-10-03T15:25:01;18.60;58.50
3332;DHT22;1678;50.94845400;5.30809100;2022-10-03T15:27:31;18.50;57.50
3332;DHT22;1678;50.94845400;5.30809100;2022-10-03T15:30:03;18.60;57.80
3332;DHT22;1678;50.94845400;5.30809100;2022-10-03T15:32:36;18.50;60.20
3332;DHT22;1678;50.94845400;5.30809100;2022-10-03T15:35:06;18.60;61.90
3332;DHT22;1678;50.94845400;5.30809100;2022-10-03T15:37:38;18.60;60.60
3332;DHT22;1678;50.94845400;5.30809100;2022-10-03T15:40:20;18.60;59.80
3332;DHT22;1678;50.94845400;5.30809100;2022-10-03T15:42:52;18.50;59.70
3332;DHT22;1678;50.94845400;5.30809100;2022-10-03T15:45:30;18.60;57.00
3332;DHT22;1678;50.94845400;5.30809100;2022-10-03T15:48:04;19.20;56.90
3332;DHT22;1678;50.94845400;5.30809100;2022-10-03T15:50:36;19.40;56.70
3332;DHT22;1678;50.94845400;5.30809100;2022-10-03T15:53:09;19.90;56.30
3332;DHT22;1678;50.94845400;5.30809100;2022-10-03T15:56:07;19.90;54.10
3332;DHT22;1678;50.94845400;5.30809100;2022-10-03T15:58:40;20.20;52.90
3332;DHT22;1678;50.94845400;5.30809100;2022-10-03T16:01:15;20.70;51.10
3332;DHT22;1678;50.94845400;5.30809100;2022-10-03T16:03:49;21.10;50.70
3332;DHT22;1678;50.94845400;5.30809100;2022-10-03T16:06:20;21.40;48.70
3332;DHT22;1678;50.94845400;5.30809100;2022-10-03T16:08:55;21.20;47.70
3332;DHT22;1678;50.94845400;5.30809100;2022-10-03T16:11:26;20.70;51.20
3332;DHT22;1678;50.94845400;5.30809100;2022-10-03T16:14:11;20.20;54.50
3332;DHT22;1678;50.94845400;5.30809100;2022-10-03T16:16:45;19.60;57.20
3332;DHT22;1678;50.94845400;5.30809100;2022-10-03T16:19:26;19.10;58.90
3332;DHT22;1678;50.94845400;5.30809100;2022-10-03T16:22:12;18.80;61.20
3332;DHT22;1678;50.94845400;5.30809100;2022-10-03T16:24:45;18.50;63.10
3332;DHT22;1678;50.94845400;5.30809100;2022-10-03T16:27:17;18.00;65.50
3332;DHT22;1678;50.94845400;5.30809100;2022-10-03T16:29:55;17.80;69.70
3332;DHT22;1678;50.94845400;5.30809100;2022-10-03T16:32:26;17.50;72.90
3332;DHT22;1678;50.94845400;5.30809100;2022-10-03T16:35:00;17.30;74.80
3332;DHT22;1678;50.94845400;5.30809100;2022-10-03T16:37:29;17.10;77.40
3332;DHT22;1678;50.94845400;5.30809100;2022-10-03T16:40:00;16.90;80.60
3332;DHT22;1678;50.94845400;5.30809100;2022-10-03T16:42:38;16.80;82.30
3332;DHT22;1678;50.94845400;5.30809100;2022-10-03T16:45:19;16.60;84.50
3332;DHT22;1678;50.94845400;5.30809100;2022-10-03T16:47:50;16.50;86.60
3332;DHT22;1678;50.94845400;5.30809100;2022-10-03T16:50:43;16.40;89.80
3332;DHT22;1678;50.94845400;5.30809100;2022-10-03T16:53:13;16.30;90.50
3332;DHT22;1678;50.94845400;5.30809100;2022-10-03T16:55:45;16.20;91.40
3332;DHT22;1678;50.94845400;5.30809100;2022-10-03T16:58:19;16.10;94.20
3332;DHT22;1678;50.94845400;5.30809100;2022-10-03T17:00:52;16.10;95.20
3332;DHT22;1678;50.94845400;5.30809100;2022-10-03T17:03:45;16.00;97.40
3332;DHT22;1678;50.94845400;5.30809100;2022-10-03T17:06:19;15.90;98.40
3332;DHT22;1678;50.94845400;5.30809100;2022-10-03T17:08:49;15.90;99.90
3332;DHT22;1678;50.94845400;5.30809100;2022-10-03T17:11:20;15.80;99.90
3332;DHT22;1678;50.94845400;5.30809100;2022-10-03T17:13:52;15.70;99.90
3332;DHT22;1678;50.94845400;5.30809100;2022-10-03T17:16:29;15.70;99.90
3332;DHT22;1678;50.94845400;5.30809100;2022-10-03T17:19:16;15.50;99.90
3332;DHT22;1678;50.94845400;5.30809100;2022-10-03T17:21:51;15.40;99.90
3332;DHT22;1678;50.94845400;5.30809100;2022-10-03T17:24:29;15.30;99.90
3332;DHT22;1678;50.94845400;5.30809100;2022-10-03T17:27:00;15.30;99.90
3332;DHT22;1678;50.94845400;5.30809100;2022-10-03T17:29:33;15.20;99.90
3332;DHT22;1678;50.94845400;5.30809100;2022-10-03T17:32:10;15.00;99.90
3332;DHT22;1678;50.94845400;5.30809100;2022-10-03T17:34:41;14.90;99.90
3332;DHT22;1678;50.94845400;5.30809100;2022-10-03T17:37:27;14.90;99.90
3332;DHT22;1678;50.94845400;5.30809100;2022-10-03T17:40:03;14.80;99.90
3332;DHT22;1678;50.94845400;5.30809100;2022-10-03T17:42:43;14.70;99.90
3332;DHT22;1678;50.94845400;5.30809100;2022-10-03T17:45:30;14.70;99.90
3332;DHT22;1678;50.94845400;5.30809100;2022-10-03T17:48:07;14.60;99.90
3332;DHT22;1678;50.94845400;5.30809100;2022-10-03T17:50:49;14.60;99.90
3332;DHT22;1678;50.94845400;5.30809100;2022-10-03T17:53:22;14.50;99.90
3332;DHT22;1678;50.94845400;5.30809100;2022-10-03T17:55:54;14.50;99.90
3332;DHT22;1678;50.94845400;5.30809100;2022-10-03T17:58:27;14.40;99.90
3332;DHT22;1678;50.94845400;5.30809100;2022-10-03T18:01:05;14.40;99.90